Terminal Aerodrome Forecast
Issued by NWS

Home | Current Version | Previous Version | Text Only | Print | Product List | Glossary Off
Versions: 1 2 3 4 5 6 7 8 9 10 11 12 13 14 15 16 17 18 19 20

000
FTUS43 KMPX 240500
TAFRWF
TAF
KRWF 240523Z 2406/2506 09004KT P6SM SKC
     FM240800 15004KT P6SM SCT250
     FM241600 17012G18KT P6SM SCT100 BKN200
     FM250100 15010KT P6SM SCT100 BKN250 PROB30 2503/2506 -TSRA
      OVC040CB=

USA.gov is the U.S. government's official web portal to all federal, state and local government web resources and services.